Time;durP1;ratioP1;P1;durP2;ratioP2;P2;SDS_P1;SDS_P2;PMS_P1;PMS_P2;Temp;Humidity;BMP_temperature;BMP_pressure;BME280_temperature;BME280_humidity;BME280_pressure;Samples;Min_cycle;Max_cycle;Signal;HPM_P1;HPM_P2
2021/05/24 00:00:25;;;;;;;1.77;1.30;;;9.80;90.60;;;;;;5086091;28;20284;-89
2021/05/24 00:02:52;;;;;;;2.58;1.20;;;9.80;90.60;;;;;;5084593;28;20264;-89
2021/05/24 00:05:20;;;;;;;1.25;1.02;;;9.80;90.60;;;;;;5085176;28;20203;-88
2021/05/24 00:07:47;;;;;;;3.25;1.30;;;9.80;90.60;;;;;;5085994;28;20664;-88
2021/05/24 00:10:16;;;;;;;1.38;1.10;;;9.80;90.60;;;;;;5085236;28;20227;-88
2021/05/24 00:12:47;;;;;;;3.28;1.10;;;9.80;90.60;;;;;;5071906;28;20229;-88
2021/05/24 00:15:16;;;;;;;1.85;1.20;;;9.80;90.60;;;;;;5085272;28;20678;-88
2021/05/24 00:17:42;;;;;;;2.35;1.23;;;9.80;90.60;;;;;;5086567;28;20220;-88
2021/05/24 00:20:10;;;;;;;2.92;1.50;;;9.70;90.60;;;;;;5085913;28;20205;-88
2021/05/24 00:22:37;;;;;;;1.33;1.23;;;9.70;90.60;;;;;;5085157;28;20226;-88
2021/05/24 00:25:04;;;;;;;2.22;1.38;;;9.70;90.60;;;;;;5086061;28;20288;-88
2021/05/24 00:27:31;;;;;;;1.25;1.15;;;9.60;90.60;;;;;;5085469;28;20364;-88
2021/05/24 00:29:57;;;;;;;1.85;1.40;;;9.60;90.90;;;;;;5084915;28;20225;-88
2021/05/24 00:32:23;;;;;;;2.97;1.48;;;9.50;91.00;;;;;;5065027;28;20254;-88
2021/05/24 00:34:50;;;;;;;1.80;1.20;;;9.50;91.30;;;;;;5079297;28;20203;-88
2021/05/24 00:37:17;;;;;;;2.83;1.50;;;9.50;91.30;;;;;;5089681;28;20320;-88
2021/05/24 00:39:44;;;;;;;2.35;1.48;;;9.50;91.40;;;;;;5089811;28;20197;-88
2021/05/24 00:42:11;;;;;;;1.27;1.17;;;9.50;91.60;;;;;;5089510;28;20588;-88
2021/05/24 00:44:37;;;;;;;2.08;1.10;;;9.50;91.90;;;;;;5089108;28;20229;-88
2021/05/24 00:47:04;;;;;;;1.77;1.10;;;9.50;92.00;;;;;;5087519;28;20742;-88
2021/05/24 00:49:31;;;;;;;5.78;1.48;;;9.60;91.90;;;;;;5087161;28;20743;-88
2021/05/24 00:51:58;;;;;;;1.70;1.17;;;9.60;92.00;;;;;;5089049;28;20252;-90
2021/05/24 00:54:26;;;;;;;3.72;1.60;;;9.50;91.90;;;;;;5088130;28;20618;-88
2021/05/24 00:56:56;;;;;;;1.92;1.45;;;9.40;91.80;;;;;;5088345;28;20286;-88
2021/05/24 00:59:23;;;;;;;1.63;1.40;;;9.30;92.20;;;;;;5087944;28;20647;-88
2021/05/24 01:01:49;;;;;;;2.38;1.30;;;9.20;92.70;;;;;;5089478;28;20320;-88
2021/05/24 01:04:18;;;;;;;2.25;1.30;;;9.10;92.80;;;;;;5087148;28;20232;-88
2021/05/24 01:06:44;;;;;;;1.75;1.50;;;9.10;93.00;;;;;;5088852;28;20221;-87
2021/05/24 01:09:11;;;;;;;1.40;1.30;;;9.00;93.10;;;;;;5088878;28;20193;-88
2021/05/24 01:11:37;;;;;;;1.40;1.30;;;9.00;93.50;;;;;;5081853;28;20313;-88
2021/05/24 01:14:05;;;;;;;3.55;1.50;;;9.00;93.20;;;;;;5081995;28;20197;-89
2021/05/24 01:16:31;;;;;;;1.65;1.50;;;9.00;93.20;;;;;;5074054;28;20201;-88
2021/05/24 01:18:58;;;;;;;2.65;1.48;;;9.00;93.30;;;;;;5088262;28;20269;-88
2021/05/24 01:21:25;;;;;;;3.72;1.58;;;9.00;93.20;;;;;;5068991;28;20213;-87
2021/05/24 01:23:52;;;;;;;1.60;1.40;;;9.00;93.10;;;;;;5068998;28;20631;-89
2021/05/24 01:26:20;;;;;;;3.05;1.70;;;8.90;93.20;;;;;;5081846;28;20217;-88
2021/05/24 01:28:48;;;;;;;2.17;1.40;;;8.80;93.60;;;;;;5089578;28;20199;-88
2021/05/24 01:31:15;;;;;;;1.85;1.42;;;8.80;93.90;;;;;;5088279;28;20221;-88
2021/05/24 01:33:42;;;;;;;1.60;1.10;;;8.80;94.00;;;;;;5079070;28;20660;-88
2021/05/24 01:36:10;;;;;;;1.70;1.50;;;8.90;93.60;;;;;;5069162;28;20233;-88
2021/05/24 01:38:39;;;;;;;3.78;1.80;;;8.80;93.60;;;;;;5078090;28;20688;-88
2021/05/24 01:41:06;;;;;;;2.70;1.42;;;8.80;93.70;;;;;;5089204;28;20201;-88
2021/05/24 01:43:33;;;;;;;4.25;1.67;;;8.80;93.60;;;;;;5088926;28;20249;-88
2021/05/24 01:46:02;;;;;;;2.78;1.48;;;8.80;93.70;;;;;;5074656;28;20194;-88
2021/05/24 01:48:29;;;;;;;2.42;1.40;;;8.80;93.80;;;;;;5067247;28;20634;-88
2021/05/24 01:51:02;;;;;;;1.52;1.42;;;8.80;93.80;;;;;;5067788;28;20210;-88
2021/05/24 02:22:45;;;;;;;4.10;2.20;;;8.70;94.50;;;;;;5067666;28;20590;-88
2021/05/24 02:25:13;;;;;;;1.58;1.33;;;8.70;94.40;;;;;;5069205;28;20225;-88
2021/05/24 02:27:40;;;;;;;2.13;1.33;;;8.70;94.10;;;;;;5068795;28;20232;-88
2021/05/24 02:30:07;;;;;;;2.10;1.45;;;8.70;94.00;;;;;;5068732;28;20224;-88
2021/05/24 02:32:34;;;;;;;1.30;1.20;;;8.70;93.90;;;;;;5068716;28;20228;-88
2021/05/24 02:35:17;;;;;;;1.75;1.38;;;8.70;94.10;;;;;;5069357;28;20206;-88
2021/05/24 02:37:45;;;;;;;1.73;1.38;;;8.80;94.10;;;;;;5069740;28;20243;-88
2021/05/24 02:40:14;;;;;;;2.20;1.70;;;8.70;94.10;;;;;;5069136;28;20256;-88
2021/05/24 02:42:41;;;;;;;2.35;1.30;;;8.70;94.10;;;;;;5068083;28;20237;-88
2021/05/24 02:45:21;;;;;;;2.13;1.60;;;8.60;94.00;;;;;;5068678;28;20186;-88
2021/05/24 02:47:51;;;;;;;2.53;1.35;;;8.60;94.10;;;;;;5067758;28;20233;-88
2021/05/24 02:50:20;;;;;;;4.15;1.42;;;8.50;94.30;;;;;;5068736;28;20209;-87
2021/05/24 02:52:47;;;;;;;2.03;1.83;;;8.50;94.20;;;;;;5068868;28;20240;-88
2021/05/24 02:55:15;;;;;;;2.28;1.50;;;8.60;94.30;;;;;;5088889;28;20277;-88
2021/05/24 02:57:42;;;;;;;1.42;1.20;;;8.70;94.30;;;;;;5091499;28;20205;-88
2021/05/24 03:03:34;;;;;;;1.83;1.33;;;8.70;93.90;;;;;;5088886;28;20239;-88
2021/05/24 03:06:01;;;;;;;3.38;1.38;;;8.70;94.00;;;;;;5089027;28;20201;-88
2021/05/24 03:08:28;;;;;;;1.70;1.50;;;8.70;94.30;;;;;;5077703;28;20235;-88
2021/05/24 03:10:57;;;;;;;1.27;1.17;;;8.70;94.00;;;;;;5086749;28;20228;-87
2021/05/24 03:13:25;;;;;;;2.67;1.45;;;8.70;93.90;;;;;;5089030;28;20667;-88
2021/05/24 03:15:52;;;;;;;1.40;1.30;;;8.60;93.80;;;;;;5072359;28;20197;-87
2021/05/24 03:18:25;;;;;;;2.33;1.45;;;8.60;94.00;;;;;;5089147;28;20292;-88
2021/05/24 03:21:13;;;;;;;1.48;1.10;;;8.60;94.10;;;;;;5089070;28;20590;-87
2021/05/24 03:27:24;;;;;;;4.78;1.50;;;8.60;94.10;;;;;;5093429;27;20205;-87
2021/05/24 03:33:22;;;;;;;2.37;1.77;;;8.50;93.50;;;;;;5095686;28;20288;-87
2021/05/24 03:36:12;;;;;;;3.27;1.30;;;8.30;93.60;;;;;;5089669;28;20216;-87
2021/05/24 03:39:01;;;;;;;2.20;1.40;;;8.30;94.00;;;;;;5083943;28;20263;-87
2021/05/24 03:41:28;;;;;;;2.45;1.90;;;8.20;93.60;;;;;;5092800;28;20228;-87
2021/05/24 03:43:55;;;;;;;3.17;1.33;;;8.20;93.50;;;;;;5091625;28;20228;-87
2021/05/24 03:46:21;;;;;;;2.00;1.80;;;8.10;93.60;;;;;;5089623;28;20638;-87
2021/05/24 03:48:48;;;;;;;4.30;1.33;;;7.90;93.90;;;;;;5090385;28;20250;-87
2021/05/24 03:51:44;;;;;;;2.43;1.33;;;7.90;94.70;;;;;;5089301;28;20261;-88
2021/05/24 03:56:48;;;;;;;3.10;1.75;;;8.10;94.30;;;;;;5091270;22;21264;-86
2021/05/24 03:59:15;;;;;;;3.78;1.70;;;8.00;94.40;;;;;;5049862;28;20191;-87
2021/05/24 04:01:45;;;;;;;3.75;1.80;;;8.10;94.20;;;;;;5053314;28;20232;-86
2021/05/24 04:08:00;;;;;;;2.27;1.63;;;7.90;94.00;;;;;;5068364;28;20204;-87
2021/05/24 04:10:49;;;;;;;2.53;1.40;;;7.80;94.10;;;;;;5068275;28;20217;-86
2021/05/24 04:13:16;;;;;;;2.40;1.37;;;7.90;94.30;;;;;;5067553;28;20233;-87
2021/05/24 04:15:45;;;;;;;1.77;1.30;;;7.90;93.80;;;;;;5054321;28;20210;-87
2021/05/24 04:18:16;;;;;;;3.77;1.60;;;7.90;93.80;;;;;;5055737;28;20238;-87
2021/05/24 04:20:44;;;;;;;1.50;1.40;;;8.00;93.50;;;;;;5069411;28;20201;-86
2021/05/24 04:23:10;;;;;;;1.60;1.27;;;8.00;93.60;;;;;;5069123;28;20194;-86
2021/05/24 04:29:03;;;;;;;2.77;1.80;;;8.20;93.00;;;;;;5068875;28;20186;-87
2021/05/24 04:31:31;;;;;;;1.50;1.33;;;8.30;92.90;;;;;;5068484;28;20237;-87
2021/05/24 04:33:58;;;;;;;1.77;1.40;;;8.30;92.20;;;;;;5068559;28;20198;-86
2021/05/24 04:36:24;;;;;;;1.67;1.57;;;8.30;92.50;;;;;;5069116;28;20634;-87
2021/05/24 04:39:11;;;;;;;1.50;1.40;;;8.40;92.30;;;;;;5068282;28;20182;-86
2021/05/24 04:41:37;;;;;;;2.07;1.70;;;8.40;92.00;;;;;;5070482;28;20207;-87
2021/05/24 04:44:12;;;;;;;2.73;1.80;;;8.40;92.10;;;;;;5069510;28;20260;-86
2021/05/24 04:46:46;;;;;;;4.07;1.40;;;8.40;92.40;;;;;;5068032;28;20245;-87
2021/05/24 04:52:36;;;;;;;1.45;1.33;;;8.50;91.60;;;;;;5062211;28;20240;-87
2021/05/24 04:55:04;;;;;;;2.33;1.60;;;8.60;91.30;;;;;;5064570;28;20239;-87
2021/05/24 04:57:30;;;;;;;1.30;1.20;;;8.60;91.40;;;;;;5056674;28;20242;-87
2021/05/24 04:59:56;;;;;;;3.97;1.50;;;8.70;91.40;;;;;;5067627;28;20317;-87
2021/05/24 05:02:24;;;;;;;1.40;1.30;;;8.90;91.50;;;;;;5067850;28;20221;-88
2021/05/24 05:04:51;;;;;;;1.83;1.50;;;8.90;91.20;;;;;;5068329;28;20269;-87
2021/05/24 05:07:17;;;;;;;1.42;1.30;;;9.00;91.00;;;;;;5067013;28;20229;-87
2021/05/24 05:09:44;;;;;;;3.33;1.30;;;9.00;90.50;;;;;;5064584;28;20204;-88
2021/05/24 05:12:10;;;;;;;3.00;1.48;;;9.10;90.50;;;;;;5058613;28;20240;-88
2021/05/24 05:14:37;;;;;;;1.73;1.40;;;9.10;90.50;;;;;;5059879;28;20198;-87
2021/05/24 05:17:03;;;;;;;3.13;1.45;;;9.10;90.50;;;;;;5047618;28;20237;-87
2021/05/24 05:19:30;;;;;;;1.60;1.48;;;9.20;90.50;;;;;;5057396;28;20276;-87
2021/05/24 05:21:57;;;;;;;1.50;1.40;;;9.30;90.50;;;;;;5058411;28;20254;-87
2021/05/24 05:24:23;;;;;;;1.67;1.30;;;9.30;90.50;;;;;;5068411;28;20210;-89
2021/05/24 05:26:49;;;;;;;1.90;1.40;;;9.40;90.50;;;;;;5071552;28;20659;-87
2021/05/24 05:29:16;;;;;;;1.92;1.40;;;9.50;90.60;;;;;;5072847;28;20202;-87
2021/05/24 05:31:42;;;;;;;1.35;1.20;;;9.50;90.60;;;;;;5071469;28;20752;-87
2021/05/24 05:34:09;;;;;;;5.78;1.55;;;9.50;90.60;;;;;;5070727;28;20217;-87
2021/05/24 05:36:37;;;;;;;2.75;1.40;;;9.40;90.40;;;;;;5071848;28;20233;-87
2021/05/24 05:39:04;;;;;;;2.67;1.50;;;9.40;90.00;;;;;;5072211;28;20293;-87
2021/05/24 05:41:30;;;;;;;2.70;1.63;;;9.40;90.50;;;;;;5051928;28;20194;-89
2021/05/24 05:43:56;;;;;;;3.03;1.20;;;9.40;90.50;;;;;;5065762;28;20197;-87
2021/05/24 05:46:23;;;;;;;2.88;1.55;;;9.40;90.50;;;;;;5071743;28;20201;-87
2021/05/24 05:48:49;;;;;;;1.33;1.23;;;9.60;90.60;;;;;;5071539;28;20194;-88
2021/05/24 05:51:16;;;;;;;2.55;1.25;;;9.70;90.60;;;;;;5072837;28;20353;-87
2021/05/24 07:16:33;;;;;;;1.08;1.08;;;13.70;61.50;;;;;;5086635;28;20216;-88
2021/05/24 07:19:00;;;;;;;0.88;0.82;;;13.70;61.70;;;;;;5083912;28;20269;-91
2021/05/24 07:21:26;;;;;;;2.03;1.45;;;14.00;63.40;;;;;;5074676;28;20197;-92
2021/05/24 07:23:52;;;;;;;2.60;1.15;;;14.10;61.80;;;;;;5067491;28;20197;-91
2021/05/24 07:26:19;;;;;;;1.35;1.15;;;14.00;60.70;;;;;;5061575;28;20228;-91
2021/05/24 07:28:46;;;;;;;4.20;1.10;;;13.90;60.10;;;;;;5080714;28;20203;-89
2021/05/24 07:31:12;;;;;;;0.90;0.90;;;13.80;58.30;;;;;;5091697;28;20280;-91
2021/05/24 07:33:40;;;;;;;1.83;1.00;;;13.40;59.30;;;;;;5089650;28;20248;-89
2021/05/24 07:36:07;;;;;;;1.98;0.90;;;13.70;61.60;;;;;;5089188;28;20557;-89
2021/05/24 07:38:33;;;;;;;1.15;0.88;;;13.40;59.60;;;;;;5090267;28;20251;-89
2021/05/24 07:41:03;;;;;;;1.77;1.00;;;13.80;62.00;;;;;;5088410;28;20197;-89
2021/05/24 07:43:29;;;;;;;3.83;1.15;;;14.10;57.60;;;;;;5087139;28;20284;-89
2021/05/24 07:45:56;;;;;;;1.17;1.08;;;14.10;57.40;;;;;;5081222;28;20220;-90
2021/05/24 07:48:22;;;;;;;1.77;1.42;;;14.30;56.60;;;;;;5077788;28;20225;-90
2021/05/24 07:50:49;;;;;;;1.70;1.02;;;14.30;55.10;;;;;;5089579;28;20630;-89
2021/05/24 07:53:16;;;;;;;1.85;1.13;;;14.30;57.40;;;;;;5081116;28;20236;-89
2021/05/24 07:55:42;;;;;;;2.45;1.20;;;14.70;56.80;;;;;;5076779;28;20205;-89
2021/05/24 07:58:09;;;;;;;1.42;1.02;;;15.30;52.40;;;;;;5083079;28;20227;-89
2021/05/24 08:00:35;;;;;;;0.98;0.98;;;15.80;50.10;;;;;;5086061;28;20208;-89
2021/05/24 08:03:02;;;;;;;1.98;1.30;;;15.80;49.40;;;;;;5073866;28;20220;-90
2021/05/24 08:05:28;;;;;;;2.05;1.30;;;15.30;51.60;;;;;;5074288;28;20646;-90
2021/05/24 08:07:56;;;;;;;3.42;1.20;;;15.10;51.50;;;;;;5080508;28;20326;-89
2021/05/24 08:10:22;;;;;;;1.73;1.08;;;14.90;51.30;;;;;;5078295;28;20217;-91
2021/05/24 08:12:49;;;;;;;3.28;0.80;;;15.30;51.60;;;;;;5078834;28;20222;-89
2021/05/24 08:15:23;;;;;;;2.65;1.00;;;15.50;50.10;;;;;;5079460;28;20201;-90
2021/05/24 08:17:49;;;;;;;1.00;1.00;;;15.40;49.50;;;;;;5079168;28;20308;-90
2021/05/24 08:20:15;;;;;;;4.45;1.10;;;15.30;51.70;;;;;;5082788;28;20197;-89
2021/05/24 08:22:42;;;;;;;1.30;1.20;;;15.60;49.90;;;;;;5084230;28;20292;-89
2021/05/24 08:25:11;;;;;;;4.28;1.05;;;16.00;49.20;;;;;;5085544;28;20666;-89
2021/05/24 08:27:38;;;;;;;1.35;0.90;;;16.30;48.50;;;;;;5087072;28;20264;-88
2021/05/24 08:30:06;;;;;;;1.45;0.93;;;16.80;46.30;;;;;;5086469;28;20227;-88
2021/05/24 08:32:33;;;;;;;1.33;0.90;;;16.80;45.20;;;;;;5083927;28;20236;-88
2021/05/24 08:34:59;;;;;;;4.22;2.00;;;17.00;45.80;;;;;;5075101;28;20201;-88
2021/05/24 08:37:25;;;;;;;4.28;1.10;;;17.00;45.30;;;;;;5086555;28;20262;-89
2021/05/24 08:39:52;;;;;;;2.88;1.20;;;16.70;43.90;;;;;;5086909;28;20265;-88
2021/05/24 08:42:19;;;;;;;3.45;1.05;;;16.30;46.10;;;;;;5083589;28;20236;-89
2021/05/24 08:44:48;;;;;;;1.58;1.17;;;16.10;48.40;;;;;;5073748;28;20232;-88
2021/05/24 08:47:14;;;;;;;1.48;1.20;;;16.20;48.60;;;;;;5086816;28;20237;-88
2021/05/24 08:49:41;;;;;;;1.08;1.00;;;16.00;49.10;;;;;;5087024;28;20193;-89
2021/05/24 08:52:07;;;;;;;2.13;1.15;;;15.90;49.90;;;;;;5087134;28;20232;-88
2021/05/24 08:54:37;;;;;;;2.53;1.10;;;15.90;50.50;;;;;;5086448;28;20224;-88
2021/05/24 08:57:04;;;;;;;1.13;1.00;;;16.00;52.30;;;;;;5089861;28;20216;-88
2021/05/24 08:59:31;;;;;;;1.05;0.95;;;15.90;52.20;;;;;;5089580;28;20205;-88
2021/05/24 09:01:57;;;;;;;2.95;0.90;;;15.60;51.90;;;;;;5090965;28;20229;-88
2021/05/24 09:04:39;;;;;;;1.05;0.93;;;15.70;53.10;;;;;;5091735;28;20220;-88
2021/05/24 09:07:05;;;;;;;1.88;1.20;;;15.70;52.00;;;;;;5090133;28;20256;-88
2021/05/24 09:09:31;;;;;;;1.33;1.00;;;15.70;52.00;;;;;;5088434;28;20194;-88
2021/05/24 09:11:58;;;;;;;3.90;1.20;;;15.60;51.90;;;;;;5088173;28;20229;-88
2021/05/24 09:14:25;;;;;;;1.00;1.00;;;15.60;51.90;;;;;;5085350;28;20221;-88
2021/05/24 09:16:57;;;;;;;0.90;0.90;;;15.50;52.30;;;;;;5083637;28;20259;-87
2021/05/24 09:19:25;;;;;;;3.25;1.23;;;15.50;55.50;;;;;;5081670;28;20197;-90
2021/05/24 09:21:54;;;;;;;1.77;1.05;;;15.10;54.80;;;;;;5076464;28;20236;-90
2021/05/24 09:24:24;;;;;;;3.20;1.10;;;15.10;54.90;;;;;;5082710;28;20224;-90
2021/05/24 09:26:50;;;;;;;1.10;1.02;;;14.90;54.70;;;;;;5083396;28;20225;-90
2021/05/24 09:29:22;;;;;;;2.03;1.23;;;15.00;54.40;;;;;;5090858;28;20224;-91
2021/05/24 09:31:54;;;;;;;3.70;2.45;;;14.90;56.60;;;;;;5074400;28;20249;-91
2021/05/24 09:34:23;;;;;;;1.30;1.20;;;15.20;56.10;;;;;;5081407;28;20205;-90
2021/05/24 09:36:59;;;;;;;1.50;1.40;;;15.20;56.20;;;;;;5078726;28;20229;-91
2021/05/24 09:39:31;;;;;;;1.50;1.20;;;15.50;57.10;;;;;;5077783;28;20209;-93
2021/05/24 09:42:01;;;;;;;3.83;1.30;;;15.60;55.50;;;;;;5087207;28;20233;-90
2021/05/24 09:44:30;;;;;;;1.80;1.30;;;15.20;55.30;;;;;;5092625;28;20185;-88
2021/05/24 09:46:57;;;;;;;2.55;1.13;;;15.10;58.20;;;;;;5089229;28;20260;-87
2021/05/24 09:49:25;;;;;;;2.83;1.15;;;15.20;56.10;;;;;;5079844;28;20205;-91
2021/05/24 09:51:52;;;;;;;1.30;1.20;;;15.50;55.60;;;;;;5070640;28;20257;-90
2021/05/24 09:54:19;;;;;;;4.45;2.15;;;15.50;56.40;;;;;;5077806;28;20258;-91
2021/05/24 09:56:47;;;;;;;1.40;1.30;;;15.70;55.60;;;;;;5078030;28;20697;-90
2021/05/24 09:59:16;;;;;;;2.67;1.10;;;15.70;54.90;;;;;;5083632;28;20200;-89
2021/05/24 10:01:44;;;;;;;2.33;1.20;;;15.70;56.10;;;;;;5071483;28;20225;-90
2021/05/24 10:04:13;;;;;;;1.95;1.40;;;16.10;54.10;;;;;;5078378;28;20292;-89
2021/05/24 10:06:41;;;;;;;2.55;1.75;;;16.50;52.80;;;;;;5079757;28;20224;-90
2021/05/24 10:09:09;;;;;;;2.80;2.15;;;16.90;54.30;;;;;;5087502;28;20221;-88
2021/05/24 10:11:37;;;;;;;3.28;1.60;;;17.40;53.50;;;;;;5090186;28;20663;-88
2021/05/24 10:14:05;;;;;;;2.08;1.40;;;17.70;49.10;;;;;;5069653;28;20202;-90
2021/05/24 10:16:33;;;;;;;1.20;1.10;;;16.90;51.00;;;;;;5086180;28;20721;-90
2021/05/24 10:19:01;;;;;;;7.20;2.47;;;16.50;52.70;;;;;;5078215;28;20232;-89
2021/05/24 10:21:27;;;;;;;3.58;1.90;;;16.80;52.00;;;;;;5081727;28;20206;-89
2021/05/24 10:23:55;;;;;;;1.38;1.00;;;17.30;51.80;;;;;;5079377;28;20189;-89
2021/05/24 10:26:25;;;;;;;1.98;1.55;;;17.80;48.10;;;;;;5087258;28;20189;-89
2021/05/24 10:28:53;;;;;;;1.23;1.13;;;17.80;48.40;;;;;;5086165;28;20198;-89
2021/05/24 10:31:21;;;;;;;1.52;0.95;;;17.80;44.30;;;;;;5079611;28;20278;-90
2021/05/24 10:33:48;;;;;;;1.20;1.10;;;17.00;47.80;;;;;;5085011;28;20260;-89
2021/05/24 10:36:31;;;;;;;1.90;1.30;;;17.20;49.50;;;;;;5087051;28;20205;-88
2021/05/24 10:39:11;;;;;;;2.53;1.15;;;17.20;48.70;;;;;;5085888;28;20244;-89
2021/05/24 10:41:43;;;;;;;1.95;1.15;;;17.20;50.10;;;;;;5085878;28;20228;-88
2021/05/24 10:44:11;;;;;;;1.65;1.40;;;17.60;50.40;;;;;;5084029;28;20201;-89
2021/05/24 10:46:37;;;;;;;2.42;2.05;;;17.90;48.40;;;;;;5083936;28;20250;-89
2021/05/24 10:49:16;;;;;;;1.50;1.40;;;18.00;49.20;;;;;;5075494;28;20219;-89
2021/05/24 10:51:52;;;;;;;2.38;1.40;;;17.80;49.20;;;;;;5062912;28;20237;-89
2021/05/24 10:57:41;;;;;;;2.78;1.65;;;18.10;49.10;;;;;;5107857;27;20278;-87
2021/05/24 11:00:13;;;;;;;2.38;1.60;;;18.50;48.10;;;;;;5107735;28;20690;-87
2021/05/24 11:02:40;;;;;;;1.70;1.60;;;18.80;47.20;;;;;;5107648;28;20224;-88
2021/05/24 11:05:25;;;;;;;5.18;1.50;;;18.60;46.10;;;;;;5119641;28;20230;-87
2021/05/24 11:07:54;;;;;;;2.78;2.08;;;18.30;45.60;;;;;;5107596;28;20299;-88
2021/05/24 11:10:31;;;;;;;1.63;1.17;;;18.50;45.70;;;;;;5106622;28;20210;-87
2021/05/24 11:13:29;;;;;;;2.10;1.42;;;18.40;47.60;;;;;;5108519;28;20247;-87
2021/05/24 11:16:13;;;;;;;2.35;1.30;;;18.20;47.10;;;;;;5107191;28;20189;-88
2021/05/24 11:18:46;;;;;;;1.52;1.40;;;18.40;45.80;;;;;;5107810;28;20220;-87
2021/05/24 11:21:26;;;;;;;2.58;1.50;;;18.20;47.80;;;;;;5108456;28;20205;-87
2021/05/24 11:24:09;;;;;;;1.88;1.50;;;18.60;47.20;;;;;;5107017;28;20284;-88
2021/05/24 11:26:36;;;;;;;2.72;1.80;;;19.00;45.90;;;;;;5096816;28;20222;-88
2021/05/24 11:29:11;;;;;;;7.65;2.95;;;19.20;46.10;;;;;;5104341;28;20196;-89
2021/05/24 11:31:49;;;;;;;2.08;1.55;;;19.40;45.30;;;;;;5087652;28;20656;-88
2021/05/24 11:34:34;;;;;;;8.75;2.40;;;19.00;46.00;;;;;;5107035;28;20192;-87
2021/05/24 11:37:03;;;;;;;3.95;1.60;;;19.20;43.90;;;;;;5102952;28;20303;-87
2021/05/24 11:39:32;;;;;;;1.73;1.50;;;18.90;46.10;;;;;;5099027;28;20243;-88
2021/05/24 11:42:01;;;;;;;3.75;1.65;;;19.10;47.60;;;;;;5085889;28;20233;-88
2021/05/24 11:44:34;;;;;;;4.55;1.98;;;19.40;47.00;;;;;;5111969;28;20267;-88
2021/05/24 11:47:01;;;;;;;3.10;1.40;;;19.40;46.10;;;;;;5116726;28;20247;-88
2021/05/24 11:49:34;;;;;;;7.18;2.83;;;19.40;44.40;;;;;;5097447;28;20236;-88
2021/05/24 11:52:01;;;;;;;4.53;1.90;;;19.20;45.20;;;;;;5095425;28;20242;-87
2021/05/24 11:54:28;;;;;;;2.03;1.50;;;19.20;46.60;;;;;;5118982;28;20251;-87
2021/05/24 11:56:58;;;;;;;3.00;1.70;;;19.70;47.40;;;;;;5125323;28;20235;-87
2021/05/24 11:59:25;;;;;;;6.13;1.52;;;19.80;45.00;;;;;;5114445;28;20206;-87
2021/05/24 12:01:55;;;;;;;1.50;1.40;;;19.70;43.30;;;;;;5120050;28;20230;-87
2021/05/24 12:04:23;;;;;;;2.25;1.30;;;19.60;43.40;;;;;;5112188;28;20192;-87
2021/05/24 12:06:51;;;;;;;1.70;1.35;;;19.30;43.80;;;;;;5119763;28;20207;-87
2021/05/24 12:09:38;;;;;;;2.10;1.30;;;18.90;44.80;;;;;;5123597;28;20200;-89
2021/05/24 12:12:08;;;;;;;1.63;1.30;;;18.70;46.10;;;;;;5114893;28;20585;-89
2021/05/24 12:14:35;;;;;;;1.80;1.30;;;19.20;45.30;;;;;;5116845;28;20215;-87
2021/05/24 12:17:08;;;;;;;3.15;1.60;;;19.30;46.20;;;;;;5129091;28;20228;-87
2021/05/24 12:19:35;;;;;;;1.60;1.30;;;18.90;45.30;;;;;;5130280;28;20245;-87
2021/05/24 12:22:04;;;;;;;2.47;1.50;;;18.80;46.90;;;;;;5141205;27;20226;-87
2021/05/24 12:24:33;;;;;;;3.83;3.47;;;18.70;48.40;;;;;;5146574;27;20265;-86
2021/05/24 12:26:59;;;;;;;2.45;1.58;;;19.00;49.00;;;;;;5129897;28;20254;-87
2021/05/24 12:29:28;;;;;;;2.15;1.70;;;18.80;47.40;;;;;;5124198;28;20260;-87
2021/05/24 12:31:56;;;;;;;2.63;1.50;;;18.60;48.40;;;;;;5121279;28;20253;-87
2021/05/24 12:34:30;;;;;;;1.90;1.40;;;18.60;47.80;;;;;;5113700;28;20196;-89
2021/05/24 12:36:58;;;;;;;2.10;1.35;;;18.40;48.70;;;;;;5125328;28;20235;-89
2021/05/24 12:39:32;;;;;;;3.55;1.25;;;18.30;49.20;;;;;;5127337;28;20195;-89
2021/05/24 12:42:01;;;;;;;3.13;1.33;;;18.40;49.90;;;;;;5116008;28;20307;-88
2021/05/24 12:44:45;;;;;;;1.70;1.10;;;18.70;48.80;;;;;;5125612;28;20196;-89
2021/05/24 12:47:16;;;;;;;1.85;1.27;;;18.40;50.00;;;;;;5125498;28;20227;-89
2021/05/24 12:49:44;;;;;;;2.05;1.30;;;18.60;50.90;;;;;;5125216;28;20553;-89
2021/05/24 12:52:11;;;;;;;2.55;1.40;;;18.70;50.60;;;;;;5124627;28;20232;-88
2021/05/24 12:57:15;;;;;;;2.88;1.40;;;18.90;49.30;;;;;;5487942;22;20216;-89
2021/05/24 12:59:49;;;;;;;4.53;2.53;;;18.60;49.80;;;;;;5107771;28;20268;-88
2021/05/24 13:02:26;;;;;;;7.38;2.28;;;18.90;51.30;;;;;;5105118;28;20774;-89
2021/05/24 13:05:08;;;;;;;5.03;2.10;;;18.80;52.20;;;;;;5107998;28;20192;-87
2021/05/24 13:07:45;;;;;;;4.28;1.52;;;19.10;53.00;;;;;;5106200;28;20228;-89
2021/05/24 13:10:12;;;;;;;3.30;1.30;;;19.10;49.70;;;;;;5107090;28;20283;-88
2021/05/24 13:12:41;;;;;;;1.50;1.40;;;18.80;49.00;;;;;;5088704;28;20312;-91
2021/05/24 13:15:10;;;;;;;2.30;1.73;;;18.50;50.00;;;;;;5097055;28;20201;-88
2021/05/24 13:17:51;;;;;;;2.08;1.45;;;18.80;49.90;;;;;;5092706;28;20233;-88
2021/05/24 13:20:33;;;;;;;3.47;2.78;;;19.10;49.20;;;;;;5108621;28;20212;-86
2021/05/24 13:23:42;;;;;;;2.67;1.40;;;19.10;47.30;;;;;;5107373;28;20225;-88
2021/05/24 13:29:11;;;;;;;1.95;1.38;;;19.00;46.80;;;;;;5100680;28;20188;-88
2021/05/24 13:31:41;;;;;;;3.38;1.52;;;18.80;46.50;;;;;;5107343;28;20246;-88
2021/05/24 13:34:09;;;;;;;1.58;1.25;;;18.30;48.40;;;;;;5104669;28;20189;-88
2021/05/24 13:36:38;;;;;;;2.55;1.48;;;18.20;47.60;;;;;;5095721;28;20218;-88
2021/05/24 13:39:16;;;;;;;1.63;1.45;;;17.90;48.00;;;;;;5096645;28;20189;-88
2021/05/24 13:42:04;;;;;;;5.15;2.00;;;18.00;49.10;;;;;;5084186;28;20221;-87
2021/05/24 13:44:31;;;;;;;3.80;2.60;;;18.20;49.30;;;;;;5106028;28;20199;-87
2021/05/24 13:47:00;;;;;;;1.30;1.20;;;18.10;49.90;;;;;;5110335;28;20232;-88
2021/05/24 13:50:00;;;;;;;2.80;1.33;;;18.30;50.70;;;;;;5111995;28;20255;-88
2021/05/24 13:52:28;;;;;;;1.83;1.30;;;18.20;51.90;;;;;;5045757;28;20230;-87
2021/05/24 13:54:55;;;;;;;1.70;1.30;;;17.80;53.50;;;;;;5042523;28;20219;-89
2021/05/24 13:57:21;;;;;;;1.95;1.40;;;17.90;54.00;;;;;;5027856;28;20231;-87
2021/05/24 13:59:48;;;;;;;5.22;3.60;;;17.80;53.90;;;;;;5028079;28;20219;-88
2021/05/24 14:02:16;;;;;;;2.50;2.30;;;17.50;53.80;;;;;;5016700;28;20311;-87
2021/05/24 14:04:42;;;;;;;1.67;1.30;;;17.40;55.90;;;;;;5078192;28;20204;-88
2021/05/24 14:07:09;;;;;;;1.35;1.25;;;17.50;57.60;;;;;;5074827;28;20351;-87
2021/05/24 14:09:38;;;;;;;2.22;1.80;;;17.60;60.20;;;;;;5085571;28;20297;-88
2021/05/24 14:12:05;;;;;;;2.45;1.55;;;17.70;56.50;;;;;;5089542;28;20258;-88
2021/05/24 14:14:34;;;;;;;2.47;1.20;;;17.70;56.70;;;;;;5089331;28;20605;-87
2021/05/24 14:17:00;;;;;;;1.35;1.25;;;18.00;58.90;;;;;;5083384;28;20217;-87
2021/05/24 14:19:27;;;;;;;2.22;1.48;;;18.20;56.20;;;;;;5066472;28;20198;-88
2021/05/24 14:21:54;;;;;;;1.88;1.33;;;18.30;54.50;;;;;;5066264;28;20225;-88
2021/05/24 14:24:20;;;;;;;2.20;1.20;;;18.20;54.30;;;;;;5066509;28;20198;-89
2021/05/24 14:30:12;;;;;;;1.52;1.15;;;17.90;56.70;;;;;;5079728;28;20260;-87
2021/05/24 14:32:39;;;;;;;2.72;1.50;;;17.70;59.20;;;;;;5088076;28;20233;-87
2021/05/24 14:35:06;;;;;;;1.92;1.40;;;17.70;60.80;;;;;;5087390;28;20233;-87
2021/05/24 14:37:34;;;;;;;6.25;2.78;;;17.60;59.50;;;;;;5087055;28;20217;-87
2021/05/24 14:40:00;;;;;;;21.83;17.92;;;17.50;59.60;;;;;;5089427;28;20215;-88
2021/05/24 14:42:26;;;;;;;29.48;22.77;;;17.40;62.90;;;;;;5071542;28;20330;-88
2021/05/24 14:44:53;;;;;;;13.35;11.15;;;17.30;65.20;;;;;;5089666;28;20280;-88
2021/05/24 14:47:20;;;;;;;27.45;21.10;;;17.20;65.40;;;;;;5071207;28;20237;-87
2021/05/24 14:49:53;;;;;;;9.35;7.13;;;17.20;67.80;;;;;;5102677;28;20206;-87
2021/05/24 14:52:19;;;;;;;12.38;9.40;;;17.10;67.60;;;;;;5083406;28;20233;-88
2021/05/24 14:54:46;;;;;;;15.45;12.25;;;16.90;69.10;;;;;;5086181;28;20316;-87
2021/05/24 14:57:14;;;;;;;16.00;12.05;;;16.90;72.40;;;;;;5086968;28;20252;-88
2021/05/24 14:59:41;;;;;;;2.75;2.28;;;16.90;73.30;;;;;;5087152;28;20205;-87
2021/05/24 15:02:08;;;;;;;4.68;3.20;;;16.70;72.30;;;;;;5086999;28;20233;-88
2021/05/24 15:04:35;;;;;;;20.05;15.60;;;16.60;72.90;;;;;;5081392;28;20212;-87
2021/05/24 15:07:01;;;;;;;2.83;2.53;;;16.60;74.40;;;;;;5080216;28;20284;-88
2021/05/24 15:09:28;;;;;;;8.05;5.78;;;16.50;75.40;;;;;;5090620;28;20197;-89
2021/05/24 15:11:55;;;;;;;7.32;6.53;;;16.50;75.90;;;;;;5099562;28;20232;-89
2021/05/24 15:14:21;;;;;;;5.85;4.65;;;16.50;78.30;;;;;;5081949;28;20739;-90
2021/05/24 15:16:47;;;;;;;6.47;5.80;;;16.70;78.50;;;;;;5076691;28;20248;-90
2021/05/24 15:19:14;;;;;;;3.05;2.60;;;16.70;79.40;;;;;;5084352;28;20197;-87
2021/05/24 15:21:41;;;;;;;15.25;12.48;;;16.80;78.60;;;;;;5083983;28;20650;-87
2021/05/24 15:24:08;;;;;;;8.60;7.10;;;16.70;78.50;;;;;;5083844;28;20197;-87
2021/05/24 15:26:44;;;;;;;8.13;7.18;;;16.70;78.50;;;;;;5074016;28;20292;-90
2021/05/24 15:29:11;;;;;;;5.38;4.55;;;16.70;79.20;;;;;;5081086;28;20287;-89